Time;durP1;ratioP1;P1;durP2;ratioP2;P2;SDS_P1;SDS_P2;PMS_P1;PMS_P2;Temp;Humidity;BMP_temperature;BMP_pressure;BME280_temperature;BME280_humidity;BME280_pressure;Samples;Min_cycle;Max_cycle;Signal;HPM_P1;HPM_P2
2020/12/03 00:00:43;;;;;;;46.33;23.47;;;;;;;;;;5026571;28;20625;-74
2020/12/03 00:03:11;;;;;;;40.97;21.80;;;;;;;;;;5029520;28;20690;-74
2020/12/03 00:05:37;;;;;;;43.23;22.87;;;;;;;;;;5030564;28;20705;-74
2020/12/03 00:08:02;;;;;;;45.87;24.90;;;;;;;;;;5033639;28;20828;-74
2020/12/03 00:10:28;;;;;;;46.03;23.33;;;;;;;;;;5032605;28;20185;-74
2020/12/03 00:13:02;;;;;;;43.00;22.23;;;;;;;;;;5030942;28;20773;-74
2020/12/03 00:15:27;;;;;;;41.60;22.27;;;;;;;;;;5024119;28;20204;-74
2020/12/03 00:17:52;;;;;;;39.30;21.73;;;;;;;;;;5025586;28;20173;-74
2020/12/03 00:20:18;;;;;;;41.37;21.73;;;;;;;;;;5029071;28;20232;-74
2020/12/03 00:22:43;;;;;;;45.60;22.47;;;;;;;;;;5025138;28;20216;-76
2020/12/03 00:25:09;;;;;;;41.87;20.20;;;;;;;;;;5025247;28;20282;-75
2020/12/03 00:27:34;;;;;;;42.70;21.97;;;;;;;;;;5027146;28;20368;-75
2020/12/03 00:29:59;;;;;;;41.47;21.73;;;;;;;;;;5024114;28;20320;-75
2020/12/03 00:32:24;;;;;;;41.37;21.80;;;;;;;;;;5029485;28;20205;-75
2020/12/03 00:34:49;;;;;;;41.83;20.97;;;;;;;;;;5023929;28;20887;-74
2020/12/03 00:37:14;;;;;;;39.73;21.10;;;;;;;;;;5026993;28;20174;-76
2020/12/03 00:39:40;;;;;;;41.30;19.90;;;;;;;;;;5026189;28;20185;-75
2020/12/03 00:42:05;;;;;;;42.03;22.10;;;;;;;;;;5028275;28;20209;-75
2020/12/03 00:44:30;;;;;;;42.63;21.40;;;;;;;;;;5027177;28;20245;-73
2020/12/03 00:46:55;;;;;;;43.20;21.60;;;;;;;;;;5028947;28;20217;-73
2020/12/03 00:49:20;;;;;;;37.13;20.33;;;;;;;;;;5027015;28;20233;-75
2020/12/03 00:51:49;;;;;;;41.40;21.33;;;;;;;;;;5027431;28;20684;-74
2020/12/03 00:54:15;;;;;;;37.47;19.90;;;;;;;;;;5027591;28;20221;-74
2020/12/03 00:56:40;;;;;;;37.60;18.17;;;;;;;;;;5029376;28;20527;-74
2020/12/03 00:59:05;;;;;;;37.43;20.20;;;;;;;;;;5026861;28;20561;-74
2020/12/03 01:01:32;;;;;;;40.03;19.07;;;;;;;;;;5030263;28;20261;-74
2020/12/03 01:03:58;;;;;;;36.43;18.60;;;;;;;;;;5031968;28;20186;-75
2020/12/03 01:06:23;;;;;;;33.28;17.70;;;;;;;;;;5029679;28;20192;-75
2020/12/03 01:08:48;;;;;;;33.77;17.07;;;;;;;;;;5030565;28;20208;-75
2020/12/03 01:11:13;;;;;;;31.63;17.77;;;;;;;;;;5028387;28;20186;-75
2020/12/03 01:13:38;;;;;;;33.93;16.80;;;;;;;;;;5031548;28;20227;-74
2020/12/03 01:16:03;;;;;;;31.07;16.13;;;;;;;;;;5044360;28;20205;-75
2020/12/03 01:18:30;;;;;;;31.67;16.93;;;;;;;;;;5035029;28;20706;-74
2020/12/03 01:20:55;;;;;;;31.30;16.57;;;;;;;;;;5028940;28;20226;-75
2020/12/03 01:23:20;;;;;;;28.33;15.37;;;;;;;;;;5027803;28;20714;-75
2020/12/03 01:25:45;;;;;;;31.23;16.87;;;;;;;;;;5037698;28;20189;-75
2020/12/03 01:28:10;;;;;;;29.33;15.33;;;;;;;;;;5028771;28;20627;-75
2020/12/03 01:30:36;;;;;;;27.93;15.13;;;;;;;;;;5028556;28;20205;-75
2020/12/03 01:33:01;;;;;;;23.57;14.70;;;;;;;;;;5029421;28;20205;-74
2020/12/03 01:35:26;;;;;;;32.07;16.03;;;;;;;;;;5027502;28;20208;-75
2020/12/03 01:37:51;;;;;;;33.73;15.07;;;;;;;;;;5027899;28;20177;-75
2020/12/03 01:40:22;;;;;;;29.23;13.30;;;;;;;;;;5028514;28;20873;-75
2020/12/03 01:42:47;;;;;;;29.70;14.00;;;;;;;;;;5031724;28;20247;-75
2020/12/03 01:45:31;;;;;;;22.97;11.80;;;;;;;;;;5028857;28;20210;-75
2020/12/03 01:47:56;;;;;;;24.83;12.70;;;;;;;;;;5030062;28;20185;-75
2020/12/03 01:50:21;;;;;;;22.20;11.67;;;;;;;;;;5028144;28;20186;-74
2020/12/03 01:52:48;;;;;;;26.87;12.60;;;;;;;;;;5029025;28;20212;-75
2020/12/03 01:55:13;;;;;;;21.10;11.30;;;;;;;;;;5027356;28;20202;-75
2020/12/03 01:57:44;;;;;;;24.07;12.70;;;;;;;;;;5027293;28;20675;-75
2020/12/03 02:00:12;;;;;;;19.80;12.70;;;;;;;;;;5029695;28;20173;-74
2020/12/03 02:02:37;;;;;;;23.97;12.23;;;;;;;;;;5031450;28;20209;-75
2020/12/03 02:05:25;;;;;;;25.73;11.87;;;;;;;;;;5033426;28;20190;-75
2020/12/03 02:07:50;;;;;;;19.13;11.53;;;;;;;;;;5032582;28;20198;-74
2020/12/03 02:10:17;;;;;;;26.77;13.60;;;;;;;;;;5038367;28;20491;-75
2020/12/03 02:12:42;;;;;;;21.43;11.87;;;;;;;;;;5031754;28;20221;-75
2020/12/03 02:15:09;;;;;;;24.00;12.87;;;;;;;;;;5030986;28;20193;-74
2020/12/03 02:17:34;;;;;;;23.43;13.17;;;;;;;;;;5033708;28;20231;-75
2020/12/03 02:20:00;;;;;;;24.03;11.20;;;;;;;;;;5034012;28;20174;-75
2020/12/03 02:22:26;;;;;;;22.60;11.73;;;;;;;;;;5032087;28;20757;-75
2020/12/03 02:24:51;;;;;;;21.07;12.20;;;;;;;;;;5035751;28;20275;-75
2020/12/03 02:27:19;;;;;;;19.30;10.73;;;;;;;;;;5032429;28;20675;-75
2020/12/03 02:29:44;;;;;;;22.13;11.10;;;;;;;;;;5031670;28;20564;-75
2020/12/03 02:32:09;;;;;;;20.83;10.40;;;;;;;;;;5032240;28;20205;-75
2020/12/03 02:34:35;;;;;;;19.37;9.80;;;;;;;;;;5032435;28;20623;-75
2020/12/03 02:37:01;;;;;;;23.60;9.83;;;;;;;;;;5032950;28;20243;-75
2020/12/03 02:39:28;;;;;;;26.97;11.33;;;;;;;;;;5032753;28;20667;-75
2020/12/03 02:41:53;;;;;;;21.27;11.00;;;;;;;;;;5032277;28;20198;-76
2020/12/03 02:44:19;;;;;;;19.30;9.17;;;;;;;;;;5032016;28;20239;-75
2020/12/03 02:46:44;;;;;;;26.30;10.13;;;;;;;;;;5033200;28;20178;-75
2020/12/03 02:49:10;;;;;;;22.20;10.27;;;;;;;;;;5032570;28;20920;-73
2020/12/03 02:51:35;;;;;;;17.90;9.10;;;;;;;;;;5030829;28;20185;-76
2020/12/03 02:54:01;;;;;;;17.77;9.33;;;;;;;;;;5027356;28;20176;-73
2020/12/03 02:56:26;;;;;;;16.20;9.13;;;;;;;;;;5032587;28;20205;-75
2020/12/03 02:58:51;;;;;;;20.63;9.87;;;;;;;;;;5029888;28;20224;-75
2020/12/03 03:01:16;;;;;;;18.60;9.73;;;;;;;;;;5029041;28;20200;-75
2020/12/03 03:03:41;;;;;;;17.13;9.50;;;;;;;;;;5029667;28;20197;-75
2020/12/03 03:06:06;;;;;;;14.03;8.20;;;;;;;;;;5027853;28;20213;-75
2020/12/03 03:08:32;;;;;;;23.17;9.13;;;;;;;;;;5032055;28;20184;-75
2020/12/03 03:10:57;;;;;;;19.40;9.83;;;;;;;;;;5032101;28;20782;-75
2020/12/03 03:13:22;;;;;;;17.97;8.97;;;;;;;;;;5029795;28;20213;-75
2020/12/03 03:15:48;;;;;;;31.80;10.23;;;;;;;;;;5027282;28;20324;-75
2020/12/03 03:18:13;;;;;;;15.83;8.67;;;;;;;;;;5032017;28;20182;-75
2020/12/03 03:20:38;;;;;;;16.23;8.70;;;;;;;;;;5033136;28;20272;-75
2020/12/03 03:23:04;;;;;;;17.77;8.03;;;;;;;;;;5031949;28;20209;-75
2020/12/03 03:25:29;;;;;;;19.13;9.27;;;;;;;;;;5032240;28;20235;-75
2020/12/03 03:27:54;;;;;;;16.77;9.80;;;;;;;;;;5030765;28;20186;-75
2020/12/03 03:30:19;;;;;;;13.37;8.73;;;;;;;;;;5031221;28;20179;-76
2020/12/03 03:32:45;;;;;;;15.00;8.13;;;;;;;;;;5033170;28;20216;-75
2020/12/03 03:35:10;;;;;;;20.13;9.10;;;;;;;;;;5029603;28;20253;-75
2020/12/03 03:37:35;;;;;;;18.13;9.03;;;;;;;;;;5033620;28;20180;-76
2020/12/03 03:40:03;;;;;;;23.77;9.90;;;;;;;;;;5028791;28;20177;-76
2020/12/03 03:42:28;;;;;;;18.20;9.83;;;;;;;;;;5032473;28;20193;-75
2020/12/03 03:44:53;;;;;;;21.67;9.60;;;;;;;;;;5030649;28;20666;-75
2020/12/03 03:47:18;;;;;;;20.10;9.50;;;;;;;;;;5029681;28;20261;-75
2020/12/03 03:49:43;;;;;;;17.43;9.20;;;;;;;;;;5033263;28;20682;-75
2020/12/03 03:52:09;;;;;;;19.10;8.87;;;;;;;;;;5027877;28;20285;-75
2020/12/03 03:54:34;;;;;;;19.73;9.40;;;;;;;;;;5030840;28;20197;-75
2020/12/03 03:56:59;;;;;;;17.90;9.03;;;;;;;;;;5031510;28;20186;-75
2020/12/03 03:59:24;;;;;;;16.43;9.60;;;;;;;;;;5030942;28;20292;-75
2020/12/03 04:01:49;;;;;;;21.10;11.00;;;;;;;;;;5029185;28;20264;-76
2020/12/03 04:04:15;;;;;;;25.90;10.17;;;;;;;;;;5029112;28;20274;-75
2020/12/03 04:06:40;;;;;;;24.97;11.97;;;;;;;;;;5026662;28;20177;-76
2020/12/03 04:09:05;;;;;;;27.40;10.90;;;;;;;;;;5026744;28;20650;-75
2020/12/03 04:11:30;;;;;;;20.20;10.83;;;;;;;;;;5033027;28;20192;-75
2020/12/03 04:13:55;;;;;;;22.03;11.03;;;;;;;;;;5031255;28;20706;-75
2020/12/03 04:16:21;;;;;;;27.07;13.33;;;;;;;;;;5028557;28;20221;-76
2020/12/03 04:18:46;;;;;;;23.80;11.67;;;;;;;;;;5029053;28;20194;-73
2020/12/03 04:21:13;;;;;;;21.53;11.53;;;;;;;;;;5032244;28;20679;-75
2020/12/03 04:23:38;;;;;;;24.43;11.57;;;;;;;;;;5033246;28;20216;-75
2020/12/03 04:26:03;;;;;;;23.03;12.17;;;;;;;;;;5032541;28;20190;-76
2020/12/03 04:28:28;;;;;;;20.10;11.73;;;;;;;;;;5034703;28;20313;-76
2020/12/03 04:30:54;;;;;;;25.67;11.70;;;;;;;;;;5034401;28;20554;-76
2020/12/03 04:33:20;;;;;;;22.80;11.87;;;;;;;;;;5035132;28;21523;-75
2020/12/03 04:35:46;;;;;;;22.90;12.97;;;;;;;;;;5030378;28;20382;-75
2020/12/03 04:38:11;;;;;;;25.00;12.43;;;;;;;;;;5032911;28;20174;-75
2020/12/03 04:40:37;;;;;;;19.83;12.93;;;;;;;;;;5029781;28;20790;-73
2020/12/03 04:43:06;;;;;;;24.27;12.67;;;;;;;;;;5029859;28;20201;-75
2020/12/03 04:45:37;;;;;;;21.37;12.73;;;;;;;;;;5029512;28;20284;-75
2020/12/03 04:48:10;;;;;;;29.03;13.87;;;;;;;;;;5027812;28;20192;-75
2020/12/03 04:50:51;;;;;;;25.37;13.93;;;;;;;;;;5029823;28;20204;-73
2020/12/03 04:53:28;;;;;;;19.00;12.93;;;;;;;;;;5029533;28;20700;-75
2020/12/03 04:55:56;;;;;;;23.40;13.73;;;;;;;;;;5029039;28;20294;-75
2020/12/03 04:58:33;;;;;;;24.63;13.47;;;;;;;;;;5027624;28;20189;-76
2020/12/03 05:01:03;;;;;;;26.20;14.20;;;;;;;;;;5029030;28;22118;-75
2020/12/03 05:03:41;;;;;;;24.60;14.07;;;;;;;;;;5031224;28;20205;-75
2020/12/03 05:06:06;;;;;;;26.10;14.77;;;;;;;;;;5028475;28;20186;-76
2020/12/03 05:08:41;;;;;;;23.67;14.32;;;;;;;;;;5031083;28;20204;-76
2020/12/03 05:11:13;;;;;;;32.37;15.13;;;;;;;;;;5032080;28;20224;-75
2020/12/03 05:13:44;;;;;;;29.37;16.63;;;;;;;;;;5030830;28;20752;-73
2020/12/03 05:16:35;;;;;;;26.17;17.07;;;;;;;;;;5027567;28;20224;-75
2020/12/03 05:19:02;;;;;;;25.80;15.30;;;;;;;;;;5026203;28;20185;-76
2020/12/03 05:21:29;;;;;;;34.73;17.23;;;;;;;;;;5031919;28;20265;-73
2020/12/03 05:23:55;;;;;;;28.73;18.53;;;;;;;;;;5028887;28;20210;-76
2020/12/03 05:26:23;;;;;;;30.07;18.23;;;;;;;;;;5027501;28;20344;-76
2020/12/03 05:28:48;;;;;;;29.33;19.37;;;;;;;;;;5044963;28;20635;-76
2020/12/03 05:31:16;;;;;;;32.20;18.08;;;;;;;;;;5027665;28;20946;-75
2020/12/03 05:33:42;;;;;;;28.13;18.63;;;;;;;;;;5030085;28;21997;-76
2020/12/03 05:36:34;;;;;;;26.27;17.20;;;;;;;;;;5043264;28;20208;-73
2020/12/03 05:39:01;;;;;;;27.50;17.70;;;;;;;;;;5017033;28;20210;-75
2020/12/03 05:41:30;;;;;;;32.53;17.47;;;;;;;;;;5043076;28;20189;-76
2020/12/03 05:43:55;;;;;;;26.33;17.13;;;;;;;;;;5026653;28;20189;-74
2020/12/03 05:46:22;;;;;;;25.80;15.90;;;;;;;;;;5027195;28;20597;-74
2020/12/03 05:48:54;;;;;;;26.40;16.57;;;;;;;;;;5027214;28;20186;-76
2020/12/03 05:51:24;;;;;;;23.30;15.23;;;;;;;;;;5029578;28;20540;-74
2020/12/03 05:53:50;;;;;;;30.47;16.90;;;;;;;;;;5030015;28;20667;-74
2020/12/03 05:56:19;;;;;;;28.67;16.50;;;;;;;;;;5026817;28;20209;-74
2020/12/03 05:58:45;;;;;;;26.00;16.53;;;;;;;;;;5032442;28;20904;-74
2020/12/03 06:01:15;;;;;;;28.17;17.47;;;;;;;;;;5028315;28;20639;-73
2020/12/03 06:03:40;;;;;;;26.17;16.57;;;;;;;;;;5027688;28;20695;-73
2020/12/03 06:06:23;;;;;;;33.47;17.98;;;;;;;;;;5029930;28;20193;-73
2020/12/03 06:09:04;;;;;;;27.07;18.03;;;;;;;;;;5032082;28;20228;-73
2020/12/03 06:11:50;;;;;;;32.20;19.07;;;;;;;;;;5029109;28;20223;-71
2020/12/03 06:14:34;;;;;;;24.70;18.43;;;;;;;;;;5042501;28;20178;-75
2020/12/03 06:17:09;;;;;;;28.33;19.57;;;;;;;;;;5027625;28;20652;-74
2020/12/03 06:19:54;;;;;;;34.53;19.90;;;;;;;;;;5029979;28;20185;-75
2020/12/03 06:22:44;;;;;;;28.37;19.83;;;;;;;;;;5027458;28;20687;-74
2020/12/03 06:25:20;;;;;;;36.60;21.97;;;;;;;;;;5028417;28;20227;-74
2020/12/03 06:28:04;;;;;;;32.93;21.67;;;;;;;;;;5028764;28;20521;-73
2020/12/03 06:30:36;;;;;;;33.33;20.63;;;;;;;;;;5029115;28;20257;-74
2020/12/03 06:33:14;;;;;;;37.77;24.13;;;;;;;;;;5030265;28;20228;-73
2020/12/03 06:35:50;;;;;;;33.20;21.27;;;;;;;;;;5029585;28;20693;-73
2020/12/03 06:38:18;;;;;;;32.83;22.93;;;;;;;;;;5027931;28;20185;-73
2020/12/03 06:40:45;;;;;;;38.87;22.70;;;;;;;;;;5025865;28;20186;-75
2020/12/03 06:43:14;;;;;;;40.33;24.73;;;;;;;;;;5045440;28;20225;-73
2020/12/03 06:45:45;;;;;;;39.03;24.50;;;;;;;;;;5029241;28;20328;-73
2020/12/03 06:48:25;;;;;;;35.23;23.03;;;;;;;;;;5025341;28;20447;-73
2020/12/03 06:51:09;;;;;;;37.60;24.93;;;;;;;;;;5032050;28;20185;-73
2020/12/03 06:53:40;;;;;;;37.20;23.90;;;;;;;;;;5032046;28;20205;-73
2020/12/03 06:56:08;;;;;;;37.00;22.93;;;;;;;;;;5031202;28;20274;-73
2020/12/03 06:58:33;;;;;;;35.27;22.93;;;;;;;;;;5035719;28;20203;-73
2020/12/03 07:01:25;;;;;;;37.92;24.10;;;;;;;;;;5029090;28;20186;-74
2020/12/03 07:04:22;;;;;;;35.07;22.43;;;;;;;;;;5020996;28;20186;-73
2020/12/03 07:07:05;;;;;;;37.17;23.73;;;;;;;;;;5036773;28;20193;-73
2020/12/03 07:09:50;;;;;;;35.63;24.50;;;;;;;;;;5044955;28;20193;-74
2020/12/03 07:12:21;;;;;;;47.93;26.13;;;;;;;;;;5028599;28;20379;-73
2020/12/03 07:15:03;;;;;;;39.67;24.87;;;;;;;;;;5029212;28;20196;-73
2020/12/03 07:17:47;;;;;;;44.53;24.40;;;;;;;;;;5029597;28;20240;-73
2020/12/03 07:20:28;;;;;;;42.37;25.00;;;;;;;;;;5027335;28;20278;-73
2020/12/03 07:23:07;;;;;;;42.63;26.10;;;;;;;;;;5028485;28;20205;-74
2020/12/03 07:25:32;;;;;;;45.97;27.00;;;;;;;;;;5027142;28;20269;-74
2020/12/03 07:27:57;;;;;;;45.77;25.37;;;;;;;;;;5028535;28;20196;-73
2020/12/03 07:30:32;;;;;;;44.50;27.55;;;;;;;;;;5030463;28;21327;-74
2020/12/03 07:33:00;;;;;;;47.03;28.37;;;;;;;;;;5028674;28;20233;-73
2020/12/03 07:35:28;;;;;;;43.57;27.40;;;;;;;;;;5028994;28;20206;-74
2020/12/03 07:38:04;;;;;;;47.87;27.87;;;;;;;;;;5028075;28;20426;-74
2020/12/03 07:40:29;;;;;;;46.80;27.00;;;;;;;;;;5029663;28;20213;-73
2020/12/03 07:42:59;;;;;;;48.53;27.57;;;;;;;;;;5027867;28;20327;-74
2020/12/03 07:45:31;;;;;;;50.30;27.47;;;;;;;;;;5027529;28;20180;-73
2020/12/03 07:48:25;;;;;;;51.23;27.63;;;;;;;;;;5028744;28;20285;-72
2020/12/03 07:51:06;;;;;;;51.40;26.57;;;;;;;;;;5027639;28;20193;-73
2020/12/03 07:53:32;;;;;;;46.40;27.80;;;;;;;;;;5028017;28;20292;-74
2020/12/03 07:55:57;;;;;;;51.00;27.70;;;;;;;;;;5027127;28;20214;-73
2020/12/03 07:58:40;;;;;;;51.07;28.10;;;;;;;;;;5026832;28;20178;-73
2020/12/03 08:01:06;;;;;;;59.20;29.50;;;;;;;;;;5026690;28;20674;-74
2020/12/03 08:03:37;;;;;;;47.77;29.13;;;;;;;;;;5030945;28;20205;-73
2020/12/03 08:06:08;;;;;;;52.43;29.03;;;;;;;;;;5031920;28;20178;-73
2020/12/03 08:08:35;;;;;;;45.77;27.77;;;;;;;;;;5027044;28;20221;-73
2020/12/03 08:11:00;;;;;;;53.77;29.00;;;;;;;;;;5035264;28;20264;-73
2020/12/03 08:13:39;;;;;;;53.17;29.47;;;;;;;;;;5048485;28;20249;-72
2020/12/03 08:16:10;;;;;;;50.13;26.37;;;;;;;;;;5031778;28;20214;-72
2020/12/03 08:18:35;;;;;;;48.67;26.73;;;;;;;;;;5030783;28;20197;-72
2020/12/03 08:21:01;;;;;;;44.43;25.93;;;;;;;;;;5028903;28;20185;-72
2020/12/03 08:23:26;;;;;;;41.37;25.77;;;;;;;;;;5029739;28;20204;-72
2020/12/03 08:25:51;;;;;;;38.67;24.53;;;;;;;;;;5030414;28;20326;-72
2020/12/03 08:28:19;;;;;;;35.47;21.33;;;;;;;;;;5044306;28;20186;-74
2020/12/03 08:30:51;;;;;;;37.37;23.67;;;;;;;;;;5029080;28;20230;-74
2020/12/03 08:33:18;;;;;;;41.33;23.27;;;;;;;;;;5031070;28;20650;-74
2020/12/03 08:36:07;;;;;;;41.77;22.23;;;;;;;;;;5026781;28;20702;-74
2020/12/03 08:38:34;;;;;;;33.47;21.83;;;;;;;;;;5028207;28;20273;-74
2020/12/03 08:41:02;;;;;;;39.17;22.47;;;;;;;;;;5027561;28;20170;-74
2020/12/03 08:43:28;;;;;;;39.43;24.53;;;;;;;;;;5028786;28;20196;-74
2020/12/03 08:46:37;;;;;;;36.93;23.07;;;;;;;;;;5026995;28;20192;-73
2020/12/03 08:48:43;;;;;;;40.20;21.60;;;;;;;;;;5026887;28;20276;-72
2020/12/03 08:51:11;;;;;;;35.43;21.60;;;;;;;;;;5043825;28;20268;-72
2020/12/03 08:53:37;;;;;;;37.10;22.80;;;;;;;;;;5027716;28;20209;-72
2020/12/03 08:56:18;;;;;;;34.00;22.00;;;;;;;;;;5027576;28;20205;-73
2020/12/03 08:59:02;;;;;;;36.07;22.27;;;;;;;;;;5029952;28;20205;-73
2020/12/03 09:01:42;;;;;;;29.37;19.10;;;;;;;;;;5030130;28;20554;-72
2020/12/03 09:04:08;;;;;;;33.27;21.20;;;;;;;;;;5028304;28;20192;-72
2020/12/03 09:06:43;;;;;;;32.27;19.87;;;;;;;;;;5028164;28;20186;-72
2020/12/03 09:09:08;;;;;;;24.70;18.47;;;;;;;;;;5030608;28;20201;-73
2020/12/03 09:11:34;;;;;;;29.97;18.53;;;;;;;;;;5033331;28;20177;-72
2020/12/03 09:14:01;;;;;;;27.07;18.20;;;;;;;;;;5029668;28;20201;-73
2020/12/03 09:16:27;;;;;;;28.03;17.13;;;;;;;;;;5028184;28;20217;-72
2020/12/03 09:18:52;;;;;;;25.63;16.93;;;;;;;;;;5029041;28;20177;-72
2020/12/03 09:21:24;;;;;;;31.77;18.43;;;;;;;;;;5031023;28;20643;-72
2020/12/03 09:23:51;;;;;;;28.73;17.67;;;;;;;;;;5031425;28;20192;-72
2020/12/03 09:26:19;;;;;;;25.83;16.67;;;;;;;;;;5029705;28;20178;-72
2020/12/03 09:28:48;;;;;;;25.73;15.97;;;;;;;;;;5028382;28;20260;-72
2020/12/03 09:31:14;;;;;;;24.53;15.73;;;;;;;;;;5026377;28;20178;-72
2020/12/03 09:33:43;;;;;;;21.07;14.43;;;;;;;;;;5031034;28;20429;-72
2020/12/03 09:36:10;;;;;;;24.33;16.27;;;;;;;;;;5029260;28;20214;-73
2020/12/03 09:38:35;;;;;;;23.13;15.23;;;;;;;;;;5031384;28;20267;-73
2020/12/03 09:41:00;;;;;;;23.17;14.90;;;;;;;;;;5029420;28;20202;-72
2020/12/03 09:43:26;;;;;;;24.63;15.67;;;;;;;;;;5028789;28;21787;-72
2020/12/03 09:45:53;;;;;;;26.40;16.73;;;;;;;;;;5027393;28;22653;-71
2020/12/03 09:48:19;;;;;;;20.20;14.60;;;;;;;;;;5029516;28;20853;-72
2020/12/03 09:50:45;;;;;;;19.07;15.03;;;;;;;;;;5034424;28;20340;-72
2020/12/03 09:53:14;;;;;;;22.33;14.93;;;;;;;;;;5030522;28;20198;-72
2020/12/03 09:55:39;;;;;;;19.63;13.60;;;;;;;;;;5034366;28;20710;-73
2020/12/03 09:58:04;;;;;;;23.73;14.53;;;;;;;;;;5029001;28;20268;-72
2020/12/03 10:00:38;;;;;;;23.00;16.13;;;;;;;;;;5028868;28;20232;-72
2020/12/03 10:03:16;;;;;;;23.60;15.63;;;;;;;;;;5028308;28;20256;-73
2020/12/03 10:05:44;;;;;;;26.37;17.13;;;;;;;;;;5028204;28;20232;-73
2020/12/03 10:08:28;;;;;;;25.23;17.33;;;;;;;;;;5046607;28;20728;-72
2020/12/03 10:11:12;;;;;;;23.13;17.17;;;;;;;;;;5034257;28;20282;-73
2020/12/03 10:13:52;;;;;;;27.00;16.00;;;;;;;;;;5029756;28;20221;-71
2020/12/03 10:16:21;;;;;;;28.30;17.10;;;;;;;;;;5026744;28;20197;-72
2020/12/03 10:18:49;;;;;;;26.27;16.43;;;;;;;;;;5032647;28;20178;-73
2020/12/03 10:21:15;;;;;;;26.87;18.97;;;;;;;;;;5029061;28;20416;-72
2020/12/03 10:23:56;;;;;;;25.67;17.67;;;;;;;;;;5028609;28;20247;-72
2020/12/03 10:26:31;;;;;;;27.03;16.67;;;;;;;;;;5033572;28;20281;-72
2020/12/03 10:29:09;;;;;;;26.40;16.67;;;;;;;;;;5030977;28;20183;-72
2020/12/03 10:31:34;;;;;;;24.00;16.33;;;;;;;;;;5029919;28;20308;-72
2020/12/03 10:34:01;;;;;;;29.80;18.33;;;;;;;;;;5032266;28;20182;-73
2020/12/03 10:36:31;;;;;;;27.30;16.83;;;;;;;;;;5032737;28;20746;-72
2020/12/03 10:38:57;;;;;;;24.97;17.53;;;;;;;;;;5031505;28;20185;-72
2020/12/03 10:41:28;;;;;;;25.40;18.27;;;;;;;;;;5031506;28;20302;-72
2020/12/03 10:43:54;;;;;;;28.67;17.27;;;;;;;;;;5035893;28;20177;-72
2020/12/03 10:46:23;;;;;;;25.07;16.40;;;;;;;;;;5031969;28;20832;-72
2020/12/03 10:48:49;;;;;;;27.70;17.60;;;;;;;;;;5032999;28;20186;-72
2020/12/03 10:51:17;;;;;;;26.50;16.17;;;;;;;;;;5033614;28;20255;-72
2020/12/03 10:53:44;;;;;;;21.33;16.07;;;;;;;;;;5031053;28;20638;-73
2020/12/03 10:56:12;;;;;;;22.43;15.53;;;;;;;;;;5033617;28;20197;-72
2020/12/03 10:58:55;;;;;;;23.37;16.63;;;;;;;;;;5031477;28;21137;-73
2020/12/03 11:01:28;;;;;;;25.70;16.47;;;;;;;;;;5032208;28;20609;-72
2020/12/03 11:03:54;;;;;;;21.20;15.17;;;;;;;;;;5033435;28;20253;-72
2020/12/03 11:06:26;;;;;;;28.93;17.53;;;;;;;;;;5031470;28;20186;-73
2020/12/03 11:08:52;;;;;;;22.77;15.50;;;;;;;;;;5033683;28;20197;-72
2020/12/03 11:11:17;;;;;;;22.97;16.03;;;;;;;;;;5035669;28;20237;-75
2020/12/03 11:13:43;;;;;;;23.53;16.27;;;;;;;;;;5031096;28;20323;-74
2020/12/03 11:16:10;;;;;;;26.03;17.30;;;;;;;;;;5030663;28;20486;-72
2020/12/03 11:18:40;;;;;;;24.60;15.43;;;;;;;;;;5032854;28;20282;-74
2020/12/03 11:21:26;;;;;;;26.97;17.80;;;;;;;;;;5033215;28;20174;-74
2020/12/03 11:24:03;;;;;;;26.77;15.77;;;;;;;;;;5031469;28;20200;-72
2020/12/03 11:26:31;;;;;;;25.27;16.30;;;;;;;;;;5029693;28;20323;-74
2020/12/03 11:29:07;;;;;;;23.60;15.67;;;;;;;;;;5032066;28;20186;-75
2020/12/03 11:31:33;;;;;;;24.87;16.50;;;;;;;;;;5028708;28;20263;-71
2020/12/03 11:33:58;;;;;;;20.90;15.13;;;;;;;;;;5030963;28;20182;-74
2020/12/03 11:36:30;;;;;;;20.77;15.00;;;;;;;;;;5029213;28;20213;-75
2020/12/03 11:38:57;;;;;;;22.90;15.23;;;;;;;;;;5030824;28;20170;-74
2020/12/03 11:49:30;;;;;;;23.77;15.77;;;;;;;;;;5029124;28;20612;-74
2020/12/03 11:52:08;;;;;;;24.50;16.50;;;;;;;;;;5030666;28;20679;-74
2020/12/03 11:54:33;;;;;;;29.43;18.97;;;;;;;;;;5031473;28;20181;-74
2020/12/03 11:57:00;;;;;;;26.93;16.97;;;;;;;;;;5040947;28;20213;-74
2020/12/03 11:59:32;;;;;;;30.07;18.93;;;;;;;;;;5031360;28;20257;-74
2020/12/03 12:01:58;;;;;;;28.03;18.33;;;;;;;;;;5032271;28;20844;-75
2020/12/03 12:07:07;;;;;;;28.87;18.37;;;;;;;;;;5030261;28;20192;-74
2020/12/03 12:12:13;;;;;;;28.30;19.40;;;;;;;;;;5035667;28;20227;-74
2020/12/03 12:14:39;;;;;;;27.50;18.30;;;;;;;;;;5031516;28;20226;-74
2020/12/03 12:17:05;;;;;;;26.57;18.27;;;;;;;;;;5033972;28;20327;-75
2020/12/03 12:19:30;;;;;;;24.80;17.47;;;;;;;;;;5032307;28;20502;-74
2020/12/03 12:21:57;;;;;;;28.37;17.70;;;;;;;;;;5031066;28;20453;-75
2020/12/03 12:24:22;;;;;;;22.63;15.87;;;;;;;;;;5035082;28;20192;-73
2020/12/03 12:26:48;;;;;;;27.23;16.07;;;;;;;;;;5029944;28;20595;-73
2020/12/03 12:29:13;;;;;;;20.93;15.17;;;;;;;;;;5029332;28;20216;-73
2020/12/03 12:31:38;;;;;;;20.33;14.80;;;;;;;;;;5031782;28;20185;-73
2020/12/03 12:34:03;;;;;;;19.47;13.37;;;;;;;;;;5027619;28;20185;-73
2020/12/03 12:36:29;;;;;;;17.27;13.80;;;;;;;;;;5026991;28;20216;-73
2020/12/03 12:38:55;;;;;;;20.13;13.13;;;;;;;;;;5029374;28;20181;-74
2020/12/03 12:41:20;;;;;;;19.23;14.07;;;;;;;;;;5033317;28;20178;-73
2020/12/03 12:43:45;;;;;;;16.67;13.77;;;;;;;;;;5030502;28;20197;-75
2020/12/03 12:46:10;;;;;;;18.50;13.83;;;;;;;;;;5029848;28;20679;-74
2020/12/03 12:48:35;;;;;;;18.43;14.20;;;;;;;;;;5031171;28;20249;-74
2020/12/03 12:51:00;;;;;;;18.83;14.03;;;;;;;;;;5030032;28;20217;-74
2020/12/03 12:53:26;;;;;;;15.23;12.77;;;;;;;;;;5029200;28;20201;-74
2020/12/03 12:55:51;;;;;;;19.80;12.90;;;;;;;;;;5029835;28;20231;-74
2020/12/03 12:58:16;;;;;;;16.97;13.83;;;;;;;;;;5028428;28;20748;-74
2020/12/03 13:00:41;;;;;;;21.67;14.27;;;;;;;;;;5032089;28;20228;-74
2020/12/03 13:03:07;;;;;;;19.43;12.77;;;;;;;;;;5029283;28;20248;-73
2020/12/03 13:05:32;;;;;;;16.37;11.70;;;;;;;;;;5026917;28;20521;-74
2020/12/03 13:07:57;;;;;;;17.27;12.40;;;;;;;;;;5030765;28;20234;-75
2020/12/03 13:10:23;;;;;;;13.97;10.90;;;;;;;;;;5026370;28;20189;-74
2020/12/03 13:12:48;;;;;;;16.23;10.00;;;;;;;;;;5032898;28;20267;-73
2020/12/03 13:15:13;;;;;;;20.53;13.03;;;;;;;;;;5028932;28;20224;-73
2020/12/03 13:17:39;;;;;;;17.17;12.00;;;;;;;;;;5032901;28;20210;-74
2020/12/03 13:20:04;;;;;;;13.40;10.20;;;;;;;;;;5032755;28;20177;-74
2020/12/03 13:22:29;;;;;;;14.90;10.40;;;;;;;;;;5033171;28;20693;-75
2020/12/03 13:24:55;;;;;;;15.20;10.50;;;;;;;;;;5030876;28;20178;-73
2020/12/03 13:27:20;;;;;;;12.90;10.00;;;;;;;;;;5030487;28;20399;-74
2020/12/03 13:29:45;;;;;;;22.27;9.93;;;;;;;;;;5030069;28;20257;-72
2020/12/03 13:32:10;;;;;;;12.73;9.57;;;;;;;;;;5030143;28;20201;-74
2020/12/03 13:34:36;;;;;;;12.93;9.43;;;;;;;;;;5028784;28;20235;-75
2020/12/03 13:37:01;;;;;;;12.33;9.83;;;;;;;;;;5029962;28;20210;-72
2020/12/03 13:39:26;;;;;;;10.63;8.63;;;;;;;;;;5025990;28;20230;-72
2020/12/03 13:41:52;;;;;;;10.23;8.37;;;;;;;;;;5029627;28;20205;-72
2020/12/03 13:44:17;;;;;;;9.63;8.00;;;;;;;;;;5028794;28;20196;-74
2020/12/03 13:46:42;;;;;;;10.40;8.07;;;;;;;;;;5028901;28;20189;-72
2020/12/03 13:49:08;;;;;;;10.50;8.73;;;;;;;;;;5029247;28;20189;-73
2020/12/03 13:51:33;;;;;;;10.57;8.53;;;;;;;;;;5031735;28;20174;-73
2020/12/03 13:53:58;;;;;;;12.27;7.60;;;;;;;;;;5032862;28;20655;-72
2020/12/03 13:56:23;;;;;;;11.67;8.63;;;;;;;;;;5029006;28;20625;-73
2020/12/03 13:58:49;;;;;;;12.37;8.27;;;;;;;;;;5030972;28;20692;-73
2020/12/03 14:01:14;;;;;;;9.60;7.30;;;;;;;;;;5034476;28;20514;-73
2020/12/03 14:03:39;;;;;;;11.03;8.33;;;;;;;;;;5033102;28;20198;-72
2020/12/03 14:06:04;;;;;;;10.87;7.47;;;;;;;;;;5033103;28;20204;-72
2020/12/03 14:08:29;;;;;;;10.17;8.43;;;;;;;;;;5032542;28;20677;-72
2020/12/03 14:10:55;;;;;;;9.87;7.47;;;;;;;;;;5037697;28;20292;-74
2020/12/03 14:13:21;;;;;;;9.30;6.37;;;;;;;;;;5036671;28;20222;-74
2020/12/03 14:15:47;;;;;;;7.80;6.23;;;;;;;;;;5031550;28;20201;-74
2020/12/03 14:18:12;;;;;;;6.83;5.67;;;;;;;;;;5036714;28;20944;-75
2020/12/03 14:20:37;;;;;;;6.67;5.70;;;;;;;;;;5032931;28;20676;-74
2020/12/03 14:23:03;;;;;;;5.93;5.33;;;;;;;;;;5038541;28;20596;-74
2020/12/03 14:25:28;;;;;;;6.20;5.10;;;;;;;;;;5029975;28;20190;-73
2020/12/03 14:27:53;;;;;;;5.37;4.27;;;;;;;;;;5032145;28;20211;-74
2020/12/03 14:30:19;;;;;;;5.87;4.43;;;;;;;;;;5029785;28;20304;-74
2020/12/03 14:32:45;;;;;;;6.03;4.43;;;;;;;;;;5032648;28;20716;-75
2020/12/03 14:35:10;;;;;;;6.70;4.57;;;;;;;;;;5031743;28;20270;-74
2020/12/03 14:37:36;;;;;;;5.67;5.00;;;;;;;;;;5031494;28;20193;-74
2020/12/03 14:40:09;;;;;;;6.40;4.63;;;;;;;;;;5031201;28;20170;-75